11:51
Airports
History
Links
Donate
Help keep this website running!
PayPal
Bitcoin
This page is community maintained. The information is intended for PC simulator navigation or reference.
Always use approved charts for navigation.
SBPV
Governador Jorge Teixeira De Oliveira
Governador Jorge Teixeira De Oliveira (SBPV)
Porto Velho, Rondônia, Brazil (76803270)
(C)
Lat/Lng:8° 42' 33.45" S / 63° 54' 8.2" W
-8.709293 / -63.902279
Elevation:290'ft / 88mMSL
ID / ICAO:SBPV
Runways:1
Longest:01-19
Asphalt 2,414m / 7,920ft
Controlled:Yes
METAR11:00 GMT 2018-02-20
Altimeter: 29.83
Visibility: 6.2 statute miles
Wind: 0 knots (from 000°)
Temp: 24°c / 75°f
Humidity: 94.2%

METAR: SBPV 201100Z 00000KT CAVOK 24/23 Q1010

(Powered by phpweather)
Airport Radio Frequencies
Tower: 118.7
Approach: 119.1
Runway 01 / 19
Dimensions:2414 x 45.1m 7920' x 148'ft
Surface:Asphalt
Edge Lights:Low intensity
Runway 01 [A]Runway 19 [B]
Heading:356°TH 176°TH
Lat:
Lng:
8° 43' 12.45"S
63° 54' 5.89"W
8° 41' 54.46"S
63° 54' 10.52"W
User Notes and Comments
8° 42' 33.45" S / 63° 54' 8.2" W
Distance To
Airport ID:
Nearby Airports
(C) Rondonia 6.5 NM
SWRO SSE 152°
4 Hidreletrica de Jirau 63.4 NM
SWGF SW 230°
(C) Humaita 99.0 NM
SWHT NE 34°
(U) Ariquemes 99.9 NM
SJOG SE 144°
4 Fazenda Botelho 108.8 NM
SJNN SSW 196°
(C) Labrea 115.3 NM
SWLB NNW 329°
(C) Abuna 121.1 NM
SWAB SW 235°
VFR Chart
Flight Planning at SkyVector.com